Terminal Aerodrome Forecast
Issued by NWS

Home | Current Version | Previous Version | Text Only | Print | Product List | Glossary Off
Versions: 1 2 3 4 5 6 7 8 9 10 11 12 13 14 15 16 17 18 19 20 21 22 23

000
FTUS43 KBIS 241100
TAFMOT
TAF
KMOT 241134Z 2412/2512 30010KT P6SM SCT015 SCT040
     FM241500 30013KT P6SM SCT150
     FM242200 28010KT P6SM BKN035 OVC070
     FM250100 27010KT P6SM -SN BKN015 OVC025
     FM250900 27005KT P6SM SCT025=

USA.gov is the U.S. government's official web portal to all federal, state and local government web resources and services.